sensor_id;sensor_type;location;lat;lon;timestamp;pressure;altitude;pressure_sealevel;temperature;humidity
82262;BME280;71861;52.364;6.580;2023-10-09T03:01:58;101876.97;;;14.42;86.98
82262;BME280;71861;52.364;6.580;2023-10-09T03:04:27;101874.38;;;14.42;86.95
82262;BME280;71861;52.364;6.580;2023-10-09T03:06:59;101867.50;;;14.41;87.24
82262;BME280;71861;52.364;6.580;2023-10-09T03:09:24;101863.25;;;14.40;86.93
82262;BME280;71861;52.364;6.580;2023-10-09T03:11:52;101853.75;;;14.39;86.87
82262;BME280;71861;52.364;6.580;2023-10-09T03:14:18;101852.13;;;14.38;87.76
82262;BME280;71861;52.364;6.580;2023-10-09T03:16:45;101854.59;;;14.40;87.34
82262;BME280;71861;52.364;6.580;2023-10-09T03:19:13;101851.16;;;14.39;87.22
82262;BME280;71861;52.364;6.580;2023-10-09T03:21:38;101839.88;;;14.39;87.30
82262;BME280;71861;52.364;6.580;2023-10-09T03:24:03;101828.59;;;14.38;87.48
82262;BME280;71861;52.364;6.580;2023-10-09T03:26:30;101840.69;;;14.39;87.33
82262;BME280;71861;52.364;6.580;2023-10-09T03:28:55;101850.19;;;14.40;87.50
82262;BME280;71861;52.364;6.580;2023-10-09T03:31:21;101837.75;;;14.42;87.48
82262;BME280;71861;52.364;6.580;2023-10-09T03:33:47;101845.59;;;14.42;87.73
82262;BME280;71861;52.364;6.580;2023-10-09T03:36:12;101836.78;;;14.43;87.95
82262;BME280;71861;52.364;6.580;2023-10-09T03:38:40;101835.66;;;14.46;87.81
82262;BME280;71861;52.364;6.580;2023-10-09T03:41:06;101839.56;;;14.50;87.85
82262;BME280;71861;52.364;6.580;2023-10-09T03:43:34;101845.47;;;14.52;87.87
82262;BME280;71861;52.364;6.580;2023-10-09T03:46:07;101834.69;;;14.55;88.05
82262;BME280;71861;52.364;6.580;2023-10-09T03:48:45;101831.91;;;14.56;87.72
82262;BME280;71861;52.364;6.580;2023-10-09T03:51:11;101831.75;;;14.58;87.81
82262;BME280;71861;52.364;6.580;2023-10-09T03:53:38;101842.06;;;14.59;88.12
82262;BME280;71861;52.364;6.580;2023-10-09T03:56:08;101838.16;;;14.63;87.91
82262;BME280;71861;52.364;6.580;2023-10-09T03:58:40;101835.38;;;14.65;87.71
82262;BME280;71861;52.364;6.580;2023-10-09T04:01:15;101836.19;;;14.65;87.71
82262;BME280;71861;52.364;6.580;2023-10-09T04:04:03;101841.09;;;14.68;87.57
82262;BME280;71861;52.364;6.580;2023-10-09T04:06:31;101851.56;;;14.68;87.54
82262;BME280;71861;52.364;6.580;2023-10-09T04:09:00;101852.38;;;14.69;87.66
82262;BME280;71861;52.364;6.580;2023-10-09T04:11:38;101839.97;;;14.71;87.69
82262;BME280;71861;52.364;6.580;2023-10-09T04:14:07;101845.06;;;14.72;87.95
82262;BME280;71861;52.364;6.580;2023-10-09T04:16:37;101850.75;;;14.76;87.66
82262;BME280;71861;52.364;6.580;2023-10-09T04:19:16;101861.88;;;14.78;87.62
82262;BME280;71861;52.364;6.580;2023-10-09T04:21:44;101861.72;;;14.79;87.79
82262;BME280;71861;52.364;6.580;2023-10-09T04:24:09;101862.41;;;14.81;87.67
82262;BME280;71861;52.364;6.580;2023-10-09T04:26:47;101858.31;;;14.87;87.87
82262;BME280;71861;52.364;6.580;2023-10-09T04:29:13;101846.56;;;14.91;87.97
82262;BME280;71861;52.364;6.580;2023-10-09T04:31:46;101846.06;;;14.95;88.05
82262;BME280;71861;52.364;6.580;2023-10-09T04:34:17;101844.75;;;14.99;88.00
82262;BME280;71861;52.364;6.580;2023-10-09T04:36:59;101843.47;;;15.03;88.02
82262;BME280;71861;52.364;6.580;2023-10-09T04:39:43;101852.63;;;15.07;88.18
82262;BME280;71861;52.364;6.580;2023-10-09T04:42:12;101853.91;;;15.12;87.93
82262;BME280;71861;52.364;6.580;2023-10-09T04:44:44;101847.72;;;15.13;88.17
82262;BME280;71861;52.364;6.580;2023-10-09T04:47:36;101852.63;;;15.16;88.12
82262;BME280;71861;52.364;6.580;2023-10-09T04:52:32;101862.28;;;15.23;88.02
82262;BME280;71861;52.364;6.580;2023-10-09T04:54:57;101857.53;;;15.27;87.81
82262;BME280;71861;52.364;6.580;2023-10-09T04:57:38;101872.09;;;15.29;87.70
82262;BME280;71861;52.364;6.580;2023-10-09T05:00:07;101880.47;;;15.33;87.76
82262;BME280;71861;52.364;6.580;2023-10-09T05:02:47;101872.44;;;15.34;87.74
82262;BME280;71861;52.364;6.580;2023-10-09T05:05:19;101859.00;;;15.37;87.62
82262;BME280;71861;52.364;6.580;2023-10-09T05:08:03;101863.28;;;15.38;87.85
82262;BME280;71861;52.364;6.580;2023-10-09T05:10:53;101863.13;;;15.40;87.64
82262;BME280;71861;52.364;6.580;2023-10-09T05:16:14;101850.38;;;15.45;87.55
82262;BME280;71861;52.364;6.580;2023-10-09T05:18:45;101860.50;;;15.48;87.34
82262;BME280;71861;52.364;6.580;2023-10-09T05:21:21;101866.56;;;15.48;87.32
82262;BME280;71861;52.364;6.580;2023-10-09T05:24:10;101875.22;;;15.49;87.30
82262;BME280;71861;52.364;6.580;2023-10-09T05:26:46;101872.44;;;15.50;87.28
82262;BME280;71861;52.364;6.580;2023-10-09T05:29:11;101873.28;;;15.51;87.33
82262;BME280;71861;52.364;6.580;2023-10-09T05:31:55;101878.34;;;15.52;87.28
82262;BME280;71861;52.364;6.580;2023-10-09T05:34:39;101889.66;;;15.53;87.25
82262;BME280;71861;52.364;6.580;2023-10-09T05:37:23;101894.91;;;15.53;87.25
82262;BME280;71861;52.364;6.580;2023-10-09T05:39:52;101887.03;;;15.53;87.14
82262;BME280;71861;52.364;6.580;2023-10-09T05:42:30;101892.28;;;15.53;87.33
82262;BME280;71861;52.364;6.580;2023-10-09T05:45:04;101886.03;;;15.54;87.52
82262;BME280;71861;52.364;6.580;2023-10-09T05:47:42;101887.66;;;15.55;87.39
82262;BME280;71861;52.364;6.580;2023-10-09T05:52:47;101898.81;;;15.57;87.63
82262;BME280;71861;52.364;6.580;2023-10-09T05:55:18;101904.72;;;15.59;87.61
82262;BME280;71861;52.364;6.580;2023-10-09T05:58:02;101902.72;;;15.61;87.59
82262;BME280;71861;52.364;6.580;2023-10-09T06:00:34;101894.88;;;15.61;87.63
82262;BME280;71861;52.364;6.580;2023-10-09T06:03:18;101887.00;;;15.61;87.99
82262;BME280;71861;52.364;6.580;2023-10-09T06:05:46;101891.28;;;15.62;87.96
82262;BME280;71861;52.364;6.580;2023-10-09T06:08:24;101892.75;;;15.64;88.13
82262;BME280;71861;52.364;6.580;2023-10-09T06:10:52;101887.34;;;15.66;87.94
82262;BME280;71861;52.364;6.580;2023-10-09T06:13:31;101892.41;;;15.67;88.01
82262;BME280;71861;52.364;6.580;2023-10-09T06:16:02;101899.16;;;15.70;88.11
82262;BME280;71861;52.364;6.580;2023-10-09T06:18:44;101916.31;;;15.72;87.99
82262;BME280;71861;52.364;6.580;2023-10-09T06:21:19;101897.97;;;15.72;88.17
82262;BME280;71861;52.364;6.580;2023-10-09T06:24:04;101910.91;;;15.74;88.11
82262;BME280;71861;52.364;6.580;2023-10-09T06:26:43;101889.78;;;15.75;88.41
82262;BME280;71861;52.364;6.580;2023-10-09T06:29:28;101870.28;;;15.78;88.29
82262;BME280;71861;52.364;6.580;2023-10-09T06:32:04;101868.00;;;15.83;88.31
82262;BME280;71861;52.364;6.580;2023-10-09T06:34:41;101886.81;;;15.86;88.08
82262;BME280;71861;52.364;6.580;2023-10-09T06:37:09;101900.44;;;15.90;88.15
82262;BME280;71861;52.364;6.580;2023-10-09T06:39:56;101912.38;;;15.92;88.02
82262;BME280;71861;52.364;6.580;2023-10-09T06:42:24;101908.75;;;15.93;88.07
82262;BME280;71861;52.364;6.580;2023-10-09T06:45:17;101913.84;;;15.95;87.94
82262;BME280;71861;52.364;6.580;2023-10-09T06:50:16;101904.31;;;16.02;87.89
82262;BME280;71861;52.364;6.580;2023-10-09T06:52:47;101905.00;;;16.04;88.10
82262;BME280;71861;52.364;6.580;2023-10-09T06:55:38;101902.66;;;16.09;87.88
82262;BME280;71861;52.364;6.580;2023-10-09T07:00:48;101896.75;;;16.15;87.70
82262;BME280;71861;52.364;6.580;2023-10-09T07:03:19;101905.28;;;16.17;87.72
82262;BME280;71861;52.364;6.580;2023-10-09T07:05:44;101911.81;;;16.21;87.55
82262;BME280;71861;52.364;6.580;2023-10-09T07:08:29;101915.09;;;16.23;87.70
82262;BME280;71861;52.364;6.580;2023-10-09T07:11:02;101913.13;;;16.25;87.62
82262;BME280;71861;52.364;6.580;2023-10-09T07:13:46;101901.47;;;16.27;87.59
82262;BME280;71861;52.364;6.580;2023-10-09T07:16:20;101884.75;;;16.28;87.75
82262;BME280;71861;52.364;6.580;2023-10-09T07:19:03;101879.78;;;16.33;87.70
82262;BME280;71861;52.364;6.580;2023-10-09T07:21:35;101874.22;;;16.36;87.64
82262;BME280;71861;52.364;6.580;2023-10-09T07:24:00;101880.13;;;16.38;87.58
82262;BME280;71861;52.364;6.580;2023-10-09T07:26:39;101884.34;;;16.39;87.66
82262;BME280;71861;52.364;6.580;2023-10-09T07:29:12;101890.91;;;16.43;87.38
82262;BME280;71861;52.364;6.580;2023-10-09T07:31:46;101895.03;;;16.46;87.47
82262;BME280;71861;52.364;6.580;2023-10-09T07:34:12;101892.06;;;16.49;87.50
82262;BME280;71861;52.364;6.580;2023-10-09T07:36:55;101907.63;;;16.50;87.27
82262;BME280;71861;52.364;6.580;2023-10-09T07:39:28;101913.38;;;16.54;87.35
82262;BME280;71861;52.364;6.580;2023-10-09T07:42:00;101919.09;;;16.57;87.41
82262;BME280;71861;52.364;6.580;2023-10-09T07:44:41;101924.81;;;16.61;87.23
82262;BME280;71861;52.364;6.580;2023-10-09T07:47:12;101925.28;;;16.64;87.33
82262;BME280;71861;52.364;6.580;2023-10-09T07:49:47;101924.16;;;16.67;87.33
82262;BME280;71861;52.364;6.580;2023-10-09T07:52:24;101917.91;;;16.68;87.21
82262;BME280;71861;52.364;6.580;2023-10-09T07:54:51;101914.09;;;16.71;87.13
82262;BME280;71861;52.364;6.580;2023-10-09T07:57:18;101920.84;;;16.73;87.19
82262;BME280;71861;52.364;6.580;2023-10-09T07:59:50;101908.34;;;16.75;87.01
82262;BME280;71861;52.364;6.580;2023-10-09T08:02:36;101911.44;;;16.79;87.03
82262;BME280;71861;52.364;6.580;2023-10-09T08:05:04;101896.34;;;16.81;87.04
82262;BME280;71861;52.364;6.580;2023-10-09T08:07:31;101902.22;;;16.83;86.84
82262;BME280;71861;52.364;6.580;2023-10-09T08:10:03;101895.19;;;16.83;86.78
82262;BME280;71861;52.364;6.580;2023-10-09T08:12:43;101879.41;;;16.83;86.79
82262;BME280;71861;52.364;6.580;2023-10-09T08:15:14;101885.31;;;16.85;86.81
82262;BME280;71861;52.364;6.580;2023-10-09T08:17:44;101887.94;;;16.85;86.79
82262;BME280;71861;52.364;6.580;2023-10-09T08:20:15;101883.34;;;16.87;86.77
82262;BME280;71861;52.364;6.580;2023-10-09T08:22:42;101887.25;;;16.91;86.79
82262;BME280;71861;52.364;6.580;2023-10-09T08:25:09;101896.22;;;16.97;86.66
82262;BME280;71861;52.364;6.580;2023-10-09T08:27:51;101894.09;;;17.00;86.51
82262;BME280;71861;52.364;6.580;2023-10-09T08:30:19;101887.47;;;17.04;86.33
82262;BME280;71861;52.364;6.580;2023-10-09T08:32:51;101881.91;;;17.07;86.36
82262;BME280;71861;52.364;6.580;2023-10-09T08:35:30;101855.91;;;17.12;86.55
82262;BME280;71861;52.364;6.580;2023-10-09T08:38:01;101842.25;;;17.17;86.05
82262;BME280;71861;52.364;6.580;2023-10-09T08:40:51;101866.19;;;17.22;86.21
82262;BME280;71861;52.364;6.580;2023-10-09T08:43:20;101878.44;;;17.29;86.00
82262;BME280;71861;52.364;6.580;2023-10-09T08:45:46;101891.88;;;17.34;86.06
82262;BME280;71861;52.364;6.580;2023-10-09T08:48:12;101897.13;;;17.34;85.78
82262;BME280;71861;52.364;6.580;2023-10-09T08:50:41;101902.66;;;17.47;85.98
82262;BME280;71861;52.364;6.580;2023-10-09T08:53:07;101910.63;;;17.54;85.53
82262;BME280;71861;52.364;6.580;2023-10-09T08:55:32;101929.59;;;17.64;85.53
82262;BME280;71861;52.364;6.580;2023-10-09T08:57:57;101924.47;;;17.70;85.27
82262;BME280;71861;52.364;6.580;2023-10-09T09:00:23;101934.88;;;17.78;85.19
82262;BME280;71861;52.364;6.580;2023-10-09T09:02:55;101945.69;;;17.83;84.85
82262;BME280;71861;52.364;6.580;2023-10-09T09:05:20;101922.97;;;17.90;84.60
82262;BME280;71861;52.364;6.580;2023-10-09T09:07:46;101930.13;;;17.96;84.62
82262;BME280;71861;52.364;6.580;2023-10-09T09:10:11;101936.66;;;18.00;84.43
82262;BME280;71861;52.364;6.580;2023-10-09T09:12:43;101946.16;;;18.01;84.03
82262;BME280;71861;52.364;6.580;2023-10-09T09:15:17;101978.38;;;18.03;83.99
82262;BME280;71861;52.364;6.580;2023-10-09T09:17:48;101987.09;;;18.04;84.01
82262;BME280;71861;52.364;6.580;2023-10-09T09:20:20;101993.78;;;18.06;83.76
82262;BME280;71861;52.364;6.580;2023-10-09T09:22:52;101985.38;;;18.11;83.96
82262;BME280;71861;52.364;6.580;2023-10-09T09:25:17;101976.13;;;18.15;83.75
82262;BME280;71861;52.364;6.580;2023-10-09T09:27:43;101969.31;;;18.20;83.45
82262;BME280;71861;52.364;6.580;2023-10-09T09:30:26;101979.94;;;18.27;83.28
82262;BME280;71861;52.364;6.580;2023-10-09T09:32:58;101982.41;;;18.28;82.73
82262;BME280;71861;52.364;6.580;2023-10-09T09:38:23;101971.50;;;18.32;82.66
82262;BME280;71861;52.364;6.580;2023-10-09T09:40:50;101970.16;;;18.36;82.35
82262;BME280;71861;52.364;6.580;2023-10-09T09:43:19;101975.72;;;18.41;82.38
82262;BME280;71861;52.364;6.580;2023-10-09T09:45:48;101975.81;;;18.47;82.45
82262;BME280;71861;52.364;6.580;2023-10-09T09:48:14;101975.91;;;18.54;82.06
82262;BME280;71861;52.364;6.580;2023-10-09T09:50:41;101979.16;;;18.56;81.45
82262;BME280;71861;52.364;6.580;2023-10-09T09:53:13;101979.16;;;18.56;81.48
82262;BME280;71861;52.364;6.580;2023-10-09T09:55:59;101971.06;;;18.57;81.57
82262;BME280;71861;52.364;6.580;2023-10-09T09:58:26;101972.00;;;18.64;81.61
82262;BME280;71861;52.364;6.580;2023-10-09T10:01:07;101972.09;;;18.71;81.66
82262;BME280;71861;52.364;6.580;2023-10-09T10:03:40;101960.44;;;18.80;81.49
82262;BME280;71861;52.364;6.580;2023-10-09T10:06:08;101963.31;;;18.85;80.41
82262;BME280;71861;52.364;6.580;2023-10-09T10:08:37;101970.94;;;18.94;80.48
82262;BME280;71861;52.364;6.580;2023-10-09T10:11:04;101977.50;;;18.98;80.13
82262;BME280;71861;52.364;6.580;2023-10-09T10:16:13;101974.53;;;19.08;79.71
82262;BME280;71861;52.364;6.580;2023-10-09T10:21:24;101987.59;;;19.16;79.46
82262;BME280;71861;52.364;6.580;2023-10-09T10:24:03;101992.88;;;19.16;79.12
82262;BME280;71861;52.364;6.580;2023-10-09T10:26:35;101982.16;;;19.17;78.84
82262;BME280;71861;52.364;6.580;2023-10-09T10:29:19;101976.50;;;19.20;79.09
82262;BME280;71861;52.364;6.580;2023-10-09T10:32:00;101978.75;;;19.23;79.05
82262;BME280;71861;52.364;6.580;2023-10-09T10:34:26;101977.59;;;19.26;78.76
82262;BME280;71861;52.364;6.580;2023-10-09T10:36:52;101984.34;;;19.28;78.56
82262;BME280;71861;52.364;6.580;2023-10-09T10:39:23;101978.13;;;19.36;78.04
82262;BME280;71861;52.364;6.580;2023-10-09T10:42:07;101983.19;;;19.37;77.91
82262;BME280;71861;52.364;6.580;2023-10-09T10:44:34;101986.66;;;19.38;77.55
82262;BME280;71861;52.364;6.580;2023-10-09T10:47:01;101982.59;;;19.35;77.28
82262;BME280;71861;52.364;6.580;2023-10-09T10:49:26;101986.66;;;19.38;77.33
82262;BME280;71861;52.364;6.580;2023-10-09T10:52:01;101992.00;;;19.44;77.72
82262;BME280;71861;52.364;6.580;2023-10-09T10:54:40;101985.97;;;19.50;76.88
82262;BME280;71861;52.364;6.580;2023-10-09T10:57:13;101976.88;;;19.53;76.23
82262;BME280;71861;52.364;6.580;2023-10-09T10:59:44;101992.06;;;19.51;76.15
82262;BME280;71861;52.364;6.580;2023-10-09T11:02:10;101981.69;;;19.49;76.28
82262;BME280;71861;52.364;6.580;2023-10-09T11:04:36;101989.41;;;19.51;76.42
82262;BME280;71861;52.364;6.580;2023-10-09T11:07:02;101975.25;;;19.52;76.49
82262;BME280;71861;52.364;6.580;2023-10-09T11:09:56;101987.88;;;19.56;76.39
82262;BME280;71861;52.364;6.580;2023-10-09T11:12:31;101989.06;;;19.54;75.74
82262;BME280;71861;52.364;6.580;2023-10-09T11:15:16;101988.06;;;19.55;76.02
82262;BME280;71861;52.364;6.580;2023-10-09T11:18:06;101979.13;;;19.56;75.80
82262;BME280;71861;52.364;6.580;2023-10-09T11:20:42;101979.13;;;19.56;76.05
82262;BME280;71861;52.364;6.580;2023-10-09T11:23:20;101958.41;;;19.53;75.57
82262;BME280;71861;52.364;6.580;2023-10-09T11:25:54;101961.94;;;19.60;75.94
82262;BME280;71861;52.364;6.580;2023-10-09T11:28:40;101958.94;;;19.63;75.62
82262;BME280;71861;52.364;6.580;2023-10-09T11:31:14;101955.53;;;19.69;75.77
82262;BME280;71861;52.364;6.580;2023-10-09T11:33:49;101963.53;;;19.82;75.13
82262;BME280;71861;52.364;6.580;2023-10-09T11:36:16;101965.22;;;19.89;75.19
82262;BME280;71861;52.364;6.580;2023-10-09T11:38:42;101980.97;;;20.04;74.31
82262;BME280;71861;52.364;6.580;2023-10-09T11:41:19;101977.19;;;20.13;73.61
82262;BME280;71861;52.364;6.580;2023-10-09T11:43:45;101983.16;;;20.28;73.82
82262;BME280;71861;52.364;6.580;2023-10-09T11:46:16;101986.25;;;20.32;73.26
82262;BME280;71861;52.364;6.580;2023-10-09T11:49:08;101977.75;;;20.36;73.02
82262;BME280;71861;52.364;6.580;2023-10-09T11:51:45;101993.97;;;20.33;73.01
82262;BME280;71861;52.364;6.580;2023-10-09T11:54:31;101993.13;;;20.26;72.92
82262;BME280;71861;52.364;6.580;2023-10-09T11:57:00;101983.34;;;20.20;73.16
82262;BME280;71861;52.364;6.580;2023-10-09T11:59:28;101982.91;;;20.17;73.14
82262;BME280;71861;52.364;6.580;2023-10-09T12:01:59;101986.47;;;20.09;73.60
82262;BME280;71861;52.364;6.580;2023-10-09T12:04:26;101987.25;;;20.03;73.65
82262;BME280;71861;52.364;6.580;2023-10-09T12:06:55;101992.47;;;19.97;74.13
82262;BME280;71861;52.364;6.580;2023-10-09T12:09:31;101998.06;;;19.87;74.28
82262;BME280;71861;52.364;6.580;2023-10-09T12:11:56;102000.84;;;19.79;74.63
82262;BME280;71861;52.364;6.580;2023-10-09T12:14:25;101995.47;;;19.66;75.62
82262;BME280;71861;52.364;6.580;2023-10-09T12:16:51;102001.44;;;19.53;75.94
82262;BME280;71861;52.364;6.580;2023-10-09T12:19:17;102009.38;;;19.39;76.76
82262;BME280;71861;52.364;6.580;2023-10-09T12:21:43;102000.97;;;19.29;77.16
82262;BME280;71861;52.364;6.580;2023-10-09T12:24:08;101999.41;;;19.20;77.68
82262;BME280;71861;52.364;6.580;2023-10-09T12:26:37;101992.88;;;19.16;78.30
82262;BME280;71861;52.364;6.580;2023-10-09T12:29:04;101989.00;;;19.12;77.96
82262;BME280;71861;52.364;6.580;2023-10-09T12:31:35;101991.44;;;19.13;78.55
82262;BME280;71861;52.364;6.580;2023-10-09T12:34:01;101982.78;;;19.19;78.66
82262;BME280;71861;52.364;6.580;2023-10-09T12:36:26;101983.66;;;19.26;78.33
82262;BME280;71861;52.364;6.580;2023-10-09T12:38:51;101987.50;;;19.38;78.15
82262;BME280;71861;52.364;6.580;2023-10-09T12:41:24;101985.91;;;19.44;77.64
82262;BME280;71861;52.364;6.580;2023-10-09T12:43:53;101984.78;;;19.53;77.87
82262;BME280;71861;52.364;6.580;2023-10-09T12:46:19;101986.28;;;19.62;77.76
82262;BME280;71861;52.364;6.580;2023-10-09T12:48:48;101978.25;;;19.70;77.11
82262;BME280;71861;52.364;6.580;2023-10-09T12:51:14;101966.34;;;19.80;76.34
82262;BME280;71861;52.364;6.580;2023-10-09T12:53:42;101971.69;;;19.87;76.25
82262;BME280;71861;52.364;6.580;2023-10-09T12:56:07;101965.25;;;19.96;76.26
82262;BME280;71861;52.364;6.580;2023-10-09T12:58:34;101956.44;;;20.10;75.99
82262;BME280;71861;52.364;6.580;2023-10-09T13:01:02;101953.69;;;20.18;75.17
82262;BME280;71861;52.364;6.580;2023-10-09T13:03:34;101959.81;;;20.25;74.63
82262;BME280;71861;52.364;6.580;2023-10-09T13:06:03;101972.00;;;20.26;74.58
82262;BME280;71861;52.364;6.580;2023-10-09T13:08:32;101971.22;;;20.32;74.78
82262;BME280;71861;52.364;6.580;2023-10-09T13:11:02;101968.59;;;20.32;74.17
82262;BME280;71861;52.364;6.580;2023-10-09T13:13:35;101962.69;;;20.30;74.08
82262;BME280;71861;52.364;6.580;2023-10-09T13:18:41;101974.06;;;20.31;74.43
82262;BME280;71861;52.364;6.580;2023-10-09T13:21:15;101968.44;;;20.40;74.44
82262;BME280;71861;52.364;6.580;2023-10-09T13:23:40;101965.22;;;20.51;73.92
82262;BME280;71861;52.364;6.580;2023-10-09T13:26:07;101968.38;;;20.68;73.97
82262;BME280;71861;52.364;6.580;2023-10-09T13:31:10;101967.91;;;20.98;73.23
82262;BME280;71861;52.364;6.580;2023-10-09T13:33:39;101965.09;;;21.06;72.90
82262;BME280;71861;52.364;6.580;2023-10-09T13:36:04;101967.53;;;21.14;71.88
82262;BME280;71861;52.364;6.580;2023-10-09T13:38:40;101964.53;;;21.17;71.81
82262;BME280;71861;52.364;6.580;2023-10-09T13:41:08;101970.44;;;21.26;71.44
82262;BME280;71861;52.364;6.580;2023-10-09T13:43:38;101971.63;;;21.30;71.16
82262;BME280;71861;52.364;6.580;2023-10-09T13:46:06;101959.06;;;21.38;69.68
82262;BME280;71861;52.364;6.580;2023-10-09T13:48:31;101965.94;;;21.33;70.21
82262;BME280;71861;52.364;6.580;2023-10-09T13:51:03;101966.16;;;21.25;70.45
82262;BME280;71861;52.364;6.580;2023-10-09T13:53:32;101964.72;;;21.16;70.66
82262;BME280;71861;52.364;6.580;2023-10-09T13:55:57;101963.06;;;21.02;71.19
82262;BME280;71861;52.364;6.580;2023-10-09T13:58:23;101962.13;;;20.88;71.47
82262;BME280;71861;52.364;6.580;2023-10-09T14:00:49;101962.16;;;20.82;71.71
82262;BME280;71861;52.364;6.580;2023-10-09T14:03:15;101961.72;;;20.78;71.87
82262;BME280;71861;52.364;6.580;2023-10-09T14:05:44;101978.34;;;20.72;72.09
82262;BME280;71861;52.364;6.580;2023-10-09T14:08:22;101975.44;;;20.61;72.39
82262;BME280;71861;52.364;6.580;2023-10-09T14:10:51;101973.16;;;20.51;72.59
82262;BME280;71861;52.364;6.580;2023-10-09T14:13:16;101972.50;;;20.43;73.02
82262;BME280;71861;52.364;6.580;2023-10-09T14:15:43;101970.88;;;20.42;73.25
82262;BME280;71861;52.364;6.580;2023-10-09T14:18:08;101967.19;;;20.36;73.13
82262;BME280;71861;52.364;6.580;2023-10-09T14:20:37;101966.94;;;20.31;73.50
82262;BME280;71861;52.364;6.580;2023-10-09T14:23:02;101971.44;;;20.31;73.42
82262;BME280;71861;52.364;6.580;2023-10-09T14:25:37;101965.31;;;20.30;73.94
82262;BME280;71861;52.364;6.580;2023-10-09T14:28:07;101972.41;;;20.23;73.15
82262;BME280;71861;52.364;6.580;2023-10-09T14:30:33;101984.63;;;20.10;73.41
82262;BME280;71861;52.364;6.580;2023-10-09T14:33:07;101980.97;;;20.04;73.85
82262;BME280;71861;52.364;6.580;2023-10-09T14:35:37;101977.28;;;19.99;74.17
82262;BME280;71861;52.364;6.580;2023-10-09T14:38:04;101979.53;;;20.02;74.29
82262;BME280;71861;52.364;6.580;2023-10-09T14:40:36;101981.59;;;20.06;74.58
82262;BME280;71861;52.364;6.580;2023-10-09T14:43:06;101972.91;;;20.12;74.31
82262;BME280;71861;52.364;6.580;2023-10-09T14:45:36;101976.34;;;20.13;74.44
82262;BME280;71861;52.364;6.580;2023-10-09T14:48:01;101967.81;;;20.11;74.21
82262;BME280;71861;52.364;6.580;2023-10-09T14:50:26;101964.00;;;20.13;74.40
82262;BME280;71861;52.364;6.580;2023-10-09T14:52:51;101974.16;;;20.16;74.59
82262;BME280;71861;52.364;6.580;2023-10-09T14:55:17;101974.09;;;20.10;74.53
82262;BME280;71861;52.364;6.580;2023-10-09T14:57:54;101976.31;;;20.06;73.99
82262;BME280;71861;52.364;6.580;2023-10-09T15:00:19;101977.09;;;20.00;74.03
82262;BME280;71861;52.364;6.580;2023-10-09T15:02:48;101973.75;;;19.92;74.15
82262;BME280;71861;52.364;6.580;2023-10-09T15:05:13;101972.47;;;19.81;74.50
82262;BME280;71861;52.364;6.580;2023-10-09T15:07:39;101975.84;;;19.75;74.66
82262;BME280;71861;52.364;6.580;2023-10-09T15:10:06;101977.59;;;19.68;74.79
82262;BME280;71861;52.364;6.580;2023-10-09T15:12:34;101973.09;;;19.62;75.30
82262;BME280;71861;52.364;6.580;2023-10-09T15:15:04;101964.97;;;19.57;75.31
82262;BME280;71861;52.364;6.580;2023-10-09T15:17:30;101973.25;;;19.54;75.57
82262;BME280;71861;52.364;6.580;2023-10-09T15:19:55;101974.59;;;19.50;75.70
82262;BME280;71861;52.364;6.580;2023-10-09T15:22:21;101969.72;;;19.47;75.91
82262;BME280;71861;52.364;6.580;2023-10-09T15:24:47;101978.44;;;19.47;76.06
82262;BME280;71861;52.364;6.580;2023-10-09T15:27:13;101972.72;;;19.44;76.22
82262;BME280;71861;52.364;6.580;2023-10-09T15:29:40;101976.56;;;19.41;76.57
82262;BME280;71861;52.364;6.580;2023-10-09T15:32:09;101978.75;;;19.38;76.68
82262;BME280;71861;52.364;6.580;2023-10-09T15:34:39;101977.69;;;19.32;76.80
82262;BME280;71861;52.364;6.580;2023-10-09T15:37:06;101980.50;;;19.31;77.18
82262;BME280;71861;52.364;6.580;2023-10-09T15:39:34;101975.59;;;19.28;77.27
82262;BME280;71861;52.364;6.580;2023-10-09T15:42:00;101973.31;;;19.25;77.65
82262;BME280;71861;52.364;6.580;2023-10-09T15:44:25;101984.84;;;19.24;77.72
82262;BME280;71861;52.364;6.580;2023-10-09T15:46:51;101980.41;;;19.24;77.93
82262;BME280;71861;52.364;6.580;2023-10-09T15:49:21;101984.03;;;19.23;77.97
82262;BME280;71861;52.364;6.580;2023-10-09T15:51:46;101981.78;;;19.20;78.03
82262;BME280;71861;52.364;6.580;2023-10-09T15:54:12;101978.34;;;19.20;78.04
82262;BME280;71861;52.364;6.580;2023-10-09T15:56:39;101980.78;;;19.21;78.26
82262;BME280;71861;52.364;6.580;2023-10-09T15:59:06;101978.94;;;19.22;78.02
82262;BME280;71861;52.364;6.580;2023-10-09T16:01:32;101993.13;;;19.21;78.03
82262;BME280;71861;52.364;6.580;2023-10-09T16:03:57;101986.84;;;19.22;78.33
82262;BME280;71861;52.364;6.580;2023-10-09T16:06:23;101989.69;;;19.20;78.11
82262;BME280;71861;52.364;6.580;2023-10-09T16:08:52;101994.75;;;19.22;78.23
82262;BME280;71861;52.364;6.580;2023-10-09T16:11:18;101991.88;;;19.17;78.25
82262;BME280;71861;52.364;6.580;2023-10-09T16:13:43;101996.53;;;19.15;78.29
82262;BME280;71861;52.364;6.580;2023-10-09T16:16:09;101999.72;;;19.10;78.59
82262;BME280;71861;52.364;6.580;2023-10-09T16:18:35;101997.44;;;19.07;78.43
82262;BME280;71861;52.364;6.580;2023-10-09T16:21:00;101998.63;;;19.05;78.67
82262;BME280;71861;52.364;6.580;2023-10-09T16:23:30;101999.19;;;19.00;78.96
82262;BME280;71861;52.364;6.580;2023-10-09T16:25:56;101998.75;;;18.97;78.95
82262;BME280;71861;52.364;6.580;2023-10-09T16:28:22;102005.00;;;18.96;79.44
82262;BME280;71861;52.364;6.580;2023-10-09T16:30:47;102005.38;;;18.93;79.47
82262;BME280;71861;52.364;6.580;2023-10-09T16:33:12;102012.66;;;18.91;79.53
82262;BME280;71861;52.364;6.580;2023-10-09T16:35:41;102020.91;;;18.88;79.65
82262;BME280;71861;52.364;6.580;2023-10-09T16:38:08;102021.25;;;18.85;80.10